createdAt,value
2024-05-09T00:00:22.053Z,8.94
2024-05-09T00:02:53.129Z,8.90
2024-05-09T00:05:19.918Z,8.87
2024-05-09T00:07:46.743Z,8.82
2024-05-09T00:10:22.337Z,8.79
2024-05-09T00:12:55.774Z,8.78
2024-05-09T00:15:22.442Z,8.81
2024-05-09T00:17:49.385Z,8.79
2024-05-09T00:20:20.632Z,8.78
2024-05-09T00:22:54.552Z,8.71
2024-05-09T00:25:21.246Z,8.64
2024-05-09T00:27:47.850Z,8.60
2024-05-09T00:30:21.442Z,8.56
2024-05-09T00:32:55.243Z,8.54
2024-05-09T00:35:22.213Z,8.51
2024-05-09T00:37:48.994Z,8.50
2024-05-09T00:40:22.925Z,8.46
2024-05-09T00:42:57.577Z,8.45
2024-05-09T00:45:24.271Z,8.44
2024-05-09T00:47:51.263Z,8.42
2024-05-09T00:50:22.862Z,8.41
2024-05-09T00:52:56.809Z,8.42
2024-05-09T00:55:24.014Z,8.39
2024-05-09T00:57:51.188Z,8.37
2024-05-09T01:00:26.680Z,8.36
2024-05-09T01:02:58.687Z,8.38
2024-05-09T01:05:25.511Z,8.42
2024-05-09T01:07:52.252Z,8.38
2024-05-09T01:10:27.455Z,8.26
2024-05-09T01:12:58.781Z,8.19
2024-05-09T01:15:25.442Z,8.12
2024-05-09T01:17:55.555Z,8.12
2024-05-09T01:20:31.841Z,8.11
2024-05-09T01:23:07.271Z,8.04
2024-05-09T01:25:34.064Z,8.02
2024-05-09T01:28:00.959Z,8.00
2024-05-09T01:30:34.094Z,8.06
2024-05-09T01:33:03.719Z,8.07
2024-05-09T01:35:30.739Z,8.06
2024-05-09T01:37:57.567Z,8.07
2024-05-09T01:40:33.530Z,8.00
2024-05-09T01:43:04.852Z,7.91
2024-05-09T01:45:31.743Z,7.82
2024-05-09T01:47:58.788Z,7.77
2024-05-09T01:50:37.004Z,7.80
2024-05-09T01:53:07.763Z,7.82
2024-05-09T01:55:34.585Z,7.77
2024-05-09T01:58:01.355Z,7.73
2024-05-09T02:00:37.944Z,7.70
2024-05-09T02:03:15.943Z,7.61
2024-05-09T02:05:46.360Z,7.60
2024-05-09T02:08:15.816Z,7.58
2024-05-09T02:10:44.738Z,7.63
2024-05-09T02:13:12.016Z,7.65
2024-05-09T02:15:38.681Z,7.65
2024-05-09T02:18:06.058Z,7.66
2024-05-09T02:20:36.447Z,7.51
2024-05-09T02:23:06.164Z,7.48
2024-05-09T02:25:33.553Z,7.45
2024-05-09T02:28:00.226Z,7.42
2024-05-09T02:30:37.685Z,7.41
2024-05-09T02:33:08.384Z,7.43
2024-05-09T02:35:36.031Z,7.35
2024-05-09T02:38:03.125Z,7.39
2024-05-09T02:40:36.658Z,7.42
2024-05-09T02:43:06.461Z,7.35
2024-05-09T02:45:33.534Z,7.31
2024-05-09T02:48:00.759Z,7.34
2024-05-09T02:50:34.569Z,7.36
2024-05-09T02:53:05.955Z,7.36
2024-05-09T02:55:33.035Z,7.35
2024-05-09T02:57:59.888Z,7.36
2024-05-09T03:00:35.072Z,7.31
2024-05-09T03:03:12.596Z,7.20
2024-05-09T03:05:41.751Z,7.11
2024-05-09T03:08:08.875Z,7.15
2024-05-09T03:10:38.011Z,7.18
2024-05-09T03:13:07.391Z,7.17
2024-05-09T03:15:34.266Z,7.00
2024-05-09T03:18:01.589Z,7.05
2024-05-09T03:20:33.874Z,7.05
2024-05-09T03:23:02.866Z,7.05
2024-05-09T03:25:29.696Z,6.98
2024-05-09T03:27:56.664Z,6.91
2024-05-09T03:30:35.858Z,6.96
2024-05-09T03:33:15.439Z,7.00
2024-05-09T03:35:46.526Z,7.02
2024-05-09T03:38:13.516Z,7.02
2024-05-09T03:40:48.196Z,6.99
2024-05-09T03:43:15.793Z,6.95
2024-05-09T03:45:43.194Z,6.94
2024-05-09T03:48:10.257Z,6.92
2024-05-09T03:50:37.600Z,6.84
2024-05-09T03:53:05.213Z,6.75
2024-05-09T03:55:32.194Z,6.79
2024-05-09T03:57:59.180Z,6.78
2024-05-09T04:00:34.400Z,6.68
2024-05-09T04:03:07.266Z,6.64
2024-05-09T04:05:36.828Z,6.72
2024-05-09T04:08:03.787Z,6.68
2024-05-09T04:10:33.731Z,6.70
2024-05-09T04:13:02.369Z,6.69
2024-05-09T04:15:29.323Z,6.60
2024-05-09T04:17:56.412Z,6.58
2024-05-09T04:20:33.810Z,6.62
2024-05-09T04:23:06.242Z,6.68
2024-05-09T04:25:33.343Z,6.75
2024-05-09T04:28:00.116Z,6.81
2024-05-09T04:30:36.008Z,6.77
2024-05-09T04:33:07.459Z,6.73
2024-05-09T04:35:35.748Z,6.75
2024-05-09T04:38:02.692Z,6.83
2024-05-09T04:40:34.113Z,6.80
2024-05-09T04:43:07.188Z,6.78
2024-05-09T04:45:34.265Z,6.94
2024-05-09T04:48:01.655Z,7.07
2024-05-09T04:50:36.324Z,7.11
2024-05-09T04:53:06.997Z,7.07
2024-05-09T04:55:34.602Z,7.05
2024-05-09T04:58:01.814Z,7.11
2024-05-09T05:00:35.768Z,7.24
2024-05-09T05:03:07.438Z,7.31
2024-05-09T05:05:38.202Z,7.35
2024-05-09T05:08:05.768Z,7.39
2024-05-09T05:10:36.239Z,7.43
2024-05-09T05:13:21.072Z,7.47
2024-05-09T05:15:56.418Z,7.52
2024-05-09T05:18:24.740Z,7.60
2024-05-09T05:20:52.112Z,7.67
2024-05-09T05:23:20.510Z,7.75
2024-05-09T05:25:48.834Z,7.92
2024-05-09T05:28:16.297Z,7.99
2024-05-09T05:30:43.082Z,8.09
2024-05-09T05:33:15.279Z,8.16
2024-05-09T05:35:42.745Z,8.27
2024-05-09T05:38:10.508Z,8.33
2024-05-09T05:40:38.705Z,8.38
2024-05-09T05:43:07.374Z,8.43
2024-05-09T05:45:34.067Z,8.51
2024-05-09T05:48:04.043Z,8.58
2024-05-09T05:50:35.914Z,8.67
2024-05-09T05:53:07.063Z,8.71
2024-05-09T05:55:34.486Z,8.85
2024-05-09T05:58:02.195Z,8.90
2024-05-09T06:00:35.403Z,9.01
2024-05-09T06:03:06.131Z,9.08
2024-05-09T06:05:33.118Z,9.12
2024-05-09T06:08:00.236Z,9.22
2024-05-09T06:10:36.983Z,9.31
2024-05-09T06:13:06.417Z,9.43
2024-05-09T06:15:33.051Z,9.57
2024-05-09T06:17:59.896Z,9.62
2024-05-09T06:20:34.845Z,9.67
2024-05-09T06:23:04.685Z,9.77
2024-05-09T06:25:32.090Z,9.83
2024-05-09T06:28:00.393Z,9.89
2024-05-09T06:30:36.555Z,9.95
2024-05-09T06:33:07.807Z,10.03
2024-05-09T06:35:34.996Z,10.18
2024-05-09T06:38:02.027Z,10.30
2024-05-09T06:40:36.862Z,10.42
2024-05-09T06:43:11.025Z,10.50
2024-05-09T06:45:39.661Z,10.60
2024-05-09T06:48:07.375Z,10.69
2024-05-09T06:50:37.872Z,10.71
2024-05-09T06:53:06.092Z,10.83
2024-05-09T06:55:33.022Z,10.87
2024-05-09T06:57:59.674Z,10.95
2024-05-09T07:00:34.647Z,11.10
2024-05-09T07:03:14.386Z,11.15
2024-05-09T07:05:43.711Z,11.22
2024-05-09T07:08:10.760Z,11.28
2024-05-09T07:10:37.839Z,11.33
2024-05-09T07:13:08.979Z,11.42
2024-05-09T07:15:35.744Z,11.50
2024-05-09T07:18:18.334Z,11.63
2024-05-09T07:20:46.714Z,11.76
2024-05-09T07:23:13.884Z,11.90
2024-05-09T07:25:41.432Z,11.99
2024-05-09T07:28:16.126Z,12.11
2024-05-09T07:30:55.098Z,12.22
2024-05-09T07:33:23.700Z,12.32
2024-05-09T07:35:51.447Z,12.49
2024-05-09T07:38:18.397Z,12.49
2024-05-09T07:40:45.225Z,12.52
2024-05-09T07:43:13.109Z,12.62
2024-05-09T07:45:49.814Z,12.66
2024-05-09T07:53:38.902Z,16.52
2024-05-09T07:56:09.422Z,18.73
2024-05-09T07:58:36.665Z,20.41
2024-05-09T08:01:03.593Z,21.07
2024-05-09T08:03:30.738Z,21.71
2024-05-09T08:05:57.455Z,22.11
2024-05-09T08:08:24.071Z,22.05
2024-05-09T08:10:51.313Z,22.96
2024-05-09T08:13:18.089Z,23.21
2024-05-09T08:15:44.966Z,24.11
2024-05-09T08:18:12.018Z,23.50
2024-05-09T08:20:39.915Z,23.86
2024-05-09T08:23:06.972Z,24.71
2024-05-09T08:25:33.663Z,24.17
2024-05-09T08:28:00.426Z,24.24
2024-05-09T08:30:33.542Z,24.69
2024-05-09T08:33:04.998Z,25.24
2024-05-09T08:35:32.638Z,25.45
2024-05-09T08:37:59.416Z,26.16
2024-05-09T08:40:34.052Z,26.35
2024-05-09T08:43:05.725Z,26.59
2024-05-09T08:45:34.768Z,26.59
2024-05-09T08:48:05.880Z,26.29
2024-05-09T08:50:38.735Z,26.46
2024-05-09T08:53:07.317Z,26.66
2024-05-09T08:55:34.064Z,26.41
2024-05-09T08:58:03.592Z,25.95
2024-05-09T09:00:36.815Z,26.16
2024-05-09T09:03:09.356Z,26.65
2024-05-09T09:05:39.260Z,25.25
2024-05-09T09:08:08.213Z,25.33
2024-05-09T09:10:35.427Z,26.14
2024-05-09T09:13:04.667Z,26.59
2024-05-09T09:15:32.051Z,26.40
2024-05-09T09:18:02.278Z,26.28
2024-05-09T09:20:36.294Z,25.74
2024-05-09T09:23:04.321Z,25.96
2024-05-09T09:25:31.476Z,25.58
2024-05-09T09:27:58.880Z,25.23
2024-05-09T09:30:36.302Z,25.40
2024-05-09T09:33:08.818Z,25.15
2024-05-09T09:35:38.517Z,25.35
2024-05-09T09:38:07.193Z,24.56
2024-05-09T09:40:39.061Z,23.33
2024-05-09T09:43:18.425Z,23.68
2024-05-09T09:45:46.575Z,23.75
2024-05-09T09:48:15.320Z,23.80
2024-05-09T09:50:43.236Z,23.60
2024-05-09T09:53:11.450Z,23.15
2024-05-09T09:55:39.771Z,22.16
2024-05-09T09:58:08.789Z,21.74
2024-05-09T10:00:37.872Z,21.01
2024-05-09T10:03:05.351Z,20.74
2024-05-09T10:05:34.291Z,20.79
2024-05-09T10:08:05.675Z,20.23
2024-05-09T10:10:34.173Z,19.92
2024-05-09T10:13:05.129Z,19.56
2024-05-09T10:15:51.262Z,19.59
2024-05-09T10:18:26.118Z,19.72
2024-05-09T10:20:56.077Z,20.14
2024-05-09T10:23:32.423Z,20.80
2024-05-09T10:26:04.816Z,20.88
2024-05-09T10:28:33.544Z,21.17
2024-05-09T10:31:13.793Z,21.37
2024-05-09T10:33:51.850Z,21.42
2024-05-09T10:36:26.602Z,21.12
2024-05-09T10:38:54.594Z,21.04
2024-05-09T10:41:22.619Z,20.64
2024-05-09T10:43:51.088Z,21.09
2024-05-09T10:46:19.276Z,21.20
2024-05-09T10:48:46.918Z,20.93
2024-05-09T10:51:13.943Z,20.43
2024-05-09T10:53:46.015Z,20.27
2024-05-09T10:56:16.611Z,20.47
2024-05-09T10:58:43.599Z,20.68
2024-05-09T11:01:11.126Z,20.97
2024-05-09T11:03:39.100Z,21.40
2024-05-09T11:06:06.791Z,21.38
2024-05-09T11:08:35.106Z,21.84
2024-05-09T11:11:06.760Z,21.91
2024-05-09T11:13:36.049Z,21.36
2024-05-09T11:16:03.986Z,21.21
2024-05-09T11:18:35.081Z,21.39
2024-05-09T11:21:14.279Z,21.62
2024-05-09T11:23:41.282Z,21.90
2024-05-09T11:26:09.225Z,22.22
2024-05-09T11:31:10.214Z,22.11
2024-05-09T11:33:45.690Z,21.70
2024-05-09T11:36:12.947Z,22.03
2024-05-09T11:38:40.043Z,21.84
2024-05-09T11:41:06.855Z,21.68
2024-05-09T11:43:39.654Z,21.61
2024-05-09T11:46:06.506Z,21.38
2024-05-09T11:48:36.826Z,21.08
2024-05-09T11:51:03.749Z,20.86
2024-05-09T11:53:30.393Z,20.90
2024-05-09T11:55:57.048Z,20.94
2024-05-09T11:58:23.789Z,20.82
2024-05-09T12:00:50.690Z,20.62
2024-05-09T12:03:17.462Z,20.35
2024-05-09T12:05:44.395Z,20.25
2024-05-09T12:08:11.207Z,20.27
2024-05-09T12:10:38.094Z,20.52
2024-05-09T12:13:06.795Z,20.63
2024-05-09T12:15:37.455Z,20.50
2024-05-09T12:18:06.039Z,20.48
2024-05-09T12:20:37.629Z,20.49
2024-05-09T12:23:07.163Z,20.53
2024-05-09T12:25:36.147Z,20.47
2024-05-09T12:28:03.049Z,20.45
2024-05-09T12:30:36.582Z,20.26
2024-05-09T12:33:08.614Z,20.56
2024-05-09T12:35:35.720Z,20.50
2024-05-09T12:38:02.817Z,20.39
2024-05-09T12:40:36.410Z,20.17
2024-05-09T12:43:07.429Z,20.20
2024-05-09T12:45:35.349Z,20.31
2024-05-09T12:48:02.351Z,20.30
2024-05-09T12:50:33.253Z,20.52
2024-05-09T12:53:02.349Z,21.01
2024-05-09T12:55:33.457Z,21.02
2024-05-09T12:58:07.007Z,21.08
2024-05-09T13:00:34.569Z,21.28
2024-05-09T13:03:01.679Z,21.19
2024-05-09T13:05:29.042Z,21.08
2024-05-09T13:07:56.849Z,21.19
2024-05-09T13:10:31.107Z,21.08
2024-05-09T13:13:01.037Z,20.85
2024-05-09T13:15:28.664Z,21.04
2024-05-09T13:17:58.330Z,21.20
2024-05-09T13:20:32.774Z,21.19
2024-05-09T13:23:02.351Z,21.39
2024-05-09T13:25:29.150Z,21.37
2024-05-09T13:27:56.883Z,21.28
2024-05-09T13:30:29.834Z,21.32
2024-05-09T13:33:05.899Z,21.38
2024-05-09T13:35:34.900Z,21.10
2024-05-09T13:38:02.834Z,20.87
2024-05-09T13:40:33.919Z,20.52
2024-05-09T13:43:03.567Z,20.51
2024-05-09T13:45:30.496Z,20.35
2024-05-09T13:47:58.581Z,20.35
2024-05-09T13:50:33.257Z,20.33
2024-05-09T13:53:02.890Z,19.77
2024-05-09T13:55:29.619Z,19.62
2024-05-09T13:57:56.749Z,19.59
2024-05-09T14:00:37.799Z,19.66
2024-05-09T14:03:10.809Z,19.59
2024-05-09T14:05:37.797Z,19.61
2024-05-09T14:08:04.884Z,19.54
2024-05-09T14:10:32.515Z,19.49
2024-05-09T14:13:00.753Z,19.58
2024-05-09T14:15:27.811Z,19.55
2024-05-09T14:17:55.426Z,19.57
2024-05-09T14:20:30.509Z,19.50
2024-05-09T14:22:59.774Z,19.41
2024-05-09T14:25:32.166Z,19.53
2024-05-09T14:27:59.978Z,19.48
2024-05-09T14:30:34.735Z,19.50
2024-05-09T14:33:06.076Z,19.43
2024-05-09T14:35:33.826Z,19.47
2024-05-09T14:38:00.608Z,19.52
2024-05-09T14:40:37.185Z,19.53
2024-05-09T14:43:09.873Z,19.63
2024-05-09T14:45:36.801Z,19.65
2024-05-09T14:48:04.160Z,19.65
2024-05-09T14:50:36.233Z,19.85
2024-05-09T14:53:06.747Z,20.02
2024-05-09T14:55:39.658Z,20.41
2024-05-09T14:58:07.906Z,20.95
2024-05-09T15:00:41.670Z,21.27
2024-05-09T15:03:11.653Z,21.24
2024-05-09T15:05:38.456Z,20.80
2024-05-09T15:08:07.312Z,20.96
2024-05-09T15:10:36.324Z,21.13
2024-05-09T15:13:04.460Z,21.11
2024-05-09T15:15:31.430Z,20.92
2024-05-09T15:17:58.923Z,20.80
2024-05-09T15:20:33.104Z,20.59
2024-05-09T15:23:02.636Z,20.77
2024-05-09T15:25:29.593Z,20.97
2024-05-09T15:27:56.538Z,20.91
2024-05-09T15:30:30.544Z,20.84
2024-05-09T15:32:59.967Z,20.77
2024-05-09T15:35:26.858Z,20.65
2024-05-09T15:37:53.558Z,20.48
2024-05-09T15:40:30.465Z,20.32
2024-05-09T15:43:04.615Z,20.14
2024-05-09T15:45:31.960Z,20.23
2024-05-09T15:47:59.313Z,20.35
2024-05-09T15:50:35.784Z,20.53
2024-05-09T15:53:06.843Z,20.38
2024-05-09T15:55:34.712Z,20.30
2024-05-09T15:58:02.771Z,20.38
2024-05-09T16:00:37.409Z,21.54
2024-05-09T16:03:07.937Z,22.81
2024-05-09T16:05:34.899Z,23.23
2024-05-09T16:08:01.908Z,23.72
2024-05-09T16:10:32.761Z,23.77
2024-05-09T16:13:01.811Z,23.79
2024-05-09T16:15:28.980Z,24.05
2024-05-09T16:17:56.240Z,23.94
2024-05-09T16:20:34.258Z,23.36
2024-05-09T16:23:06.457Z,22.76
2024-05-09T16:25:33.403Z,22.72
2024-05-09T16:28:00.288Z,22.53
2024-05-09T16:30:31.940Z,22.13
2024-05-09T16:33:03.034Z,21.76
2024-05-09T16:35:30.094Z,21.49
2024-05-09T16:37:57.241Z,21.30
2024-05-09T16:40:33.169Z,21.28
2024-05-09T16:43:04.868Z,21.17
2024-05-09T16:45:31.951Z,21.11
2024-05-09T16:48:00.257Z,20.93
2024-05-09T16:50:32.530Z,21.13
2024-05-09T16:53:01.961Z,21.12
2024-05-09T16:55:28.942Z,20.68
2024-05-09T16:57:56.833Z,20.29
2024-05-09T17:00:34.985Z,20.08
2024-05-09T17:03:07.926Z,19.93
2024-05-09T17:05:35.741Z,19.87
2024-05-09T17:08:03.177Z,19.91
2024-05-09T17:10:33.667Z,20.22
2024-05-09T17:13:03.547Z,20.22
2024-05-09T17:15:32.495Z,20.24
2024-05-09T17:18:02.333Z,20.26
2024-05-09T17:20:34.139Z,20.37
2024-05-09T17:23:05.135Z,20.36
2024-05-09T17:25:32.680Z,20.21
2024-05-09T17:28:06.416Z,20.04
2024-05-09T17:30:36.871Z,20.09
2024-05-09T17:33:06.616Z,20.07
2024-05-09T17:35:33.645Z,19.90
2024-05-09T17:38:01.686Z,19.77
2024-05-09T17:40:33.566Z,19.57
2024-05-09T17:43:03.752Z,19.40
2024-05-09T17:45:31.060Z,19.28
2024-05-09T17:47:58.394Z,19.10
2024-05-09T17:50:31.591Z,18.83
2024-05-09T17:53:02.679Z,18.70
2024-05-09T17:55:29.672Z,18.57
2024-05-09T17:57:56.660Z,18.36
2024-05-09T18:00:33.359Z,18.12
2024-05-09T18:03:05.855Z,17.92
2024-05-09T18:05:32.963Z,17.77
2024-05-09T18:08:00.013Z,17.61
2024-05-09T18:10:33.729Z,17.49
2024-05-09T18:13:05.455Z,17.28
2024-05-09T18:15:42.102Z,17.18
2024-05-09T18:18:10.701Z,17.06
2024-05-09T18:20:43.712Z,16.97
2024-05-09T18:23:14.632Z,16.89
2024-05-09T18:25:42.682Z,16.79
2024-05-09T18:28:09.994Z,16.71
2024-05-09T18:30:37.530Z,16.64
2024-05-09T18:33:06.806Z,16.59
2024-05-09T18:35:34.992Z,16.52
2024-05-09T18:38:02.058Z,16.46
2024-05-09T18:40:34.162Z,16.37
2024-05-09T18:43:05.637Z,16.36
2024-05-09T18:45:33.727Z,16.34
2024-05-09T18:48:00.849Z,16.29
2024-05-09T18:50:35.083Z,16.20
2024-05-09T18:53:13.145Z,16.17
2024-05-09T18:55:41.600Z,16.10
2024-05-09T18:58:08.485Z,16.04
2024-05-09T19:00:38.523Z,16.02
2024-05-09T19:03:09.864Z,15.95
2024-05-09T19:05:39.193Z,15.90
2024-05-09T19:08:07.457Z,15.84
2024-05-09T19:10:35.746Z,15.78
2024-05-09T19:13:08.068Z,15.73
2024-05-09T19:15:38.200Z,15.73
2024-05-09T19:18:05.684Z,15.65
2024-05-09T19:20:34.968Z,15.60
2024-05-09T19:23:03.349Z,15.52
2024-05-09T19:25:30.286Z,15.43
2024-05-09T19:27:57.014Z,15.35
2024-05-09T19:30:32.877Z,15.29
2024-05-09T19:33:05.968Z,15.18
2024-05-09T19:35:33.072Z,15.09
2024-05-09T19:38:00.010Z,14.99
2024-05-09T19:40:31.444Z,14.93
2024-05-09T19:43:01.450Z,14.86
2024-05-09T19:45:28.951Z,14.80
2024-05-09T19:47:56.250Z,14.76
2024-05-09T19:50:31.709Z,14.67
2024-05-09T19:53:06.065Z,14.59
2024-05-09T19:55:33.215Z,14.51
2024-05-09T19:58:01.638Z,14.44
2024-05-09T20:00:35.676Z,14.35
2024-05-09T20:03:04.258Z,14.29
2024-05-09T20:05:31.521Z,14.19
2024-05-09T20:07:58.456Z,14.13
2024-05-09T20:10:31.407Z,14.01
2024-05-09T20:13:00.271Z,13.95
2024-05-09T20:15:27.302Z,13.91
2024-05-09T20:17:54.629Z,13.87
2024-05-09T20:20:32.156Z,13.76
2024-05-09T20:23:04.108Z,13.67
2024-05-09T20:25:30.788Z,13.60
2024-05-09T20:27:57.633Z,13.52
2024-05-09T20:30:28.952Z,13.41
2024-05-09T20:32:59.694Z,13.35
2024-05-09T20:35:26.760Z,13.26
2024-05-09T20:37:53.720Z,13.20
2024-05-09T20:40:28.374Z,13.16
2024-05-09T20:42:59.278Z,13.13
2024-05-09T20:45:26.048Z,13.08
2024-05-09T20:47:52.840Z,12.98
2024-05-09T20:50:28.298Z,12.91
2024-05-09T20:53:02.767Z,12.89
2024-05-09T20:55:30.152Z,12.85
2024-05-09T20:57:57.433Z,12.82
2024-05-09T21:00:33.802Z,12.75
2024-05-09T21:03:06.511Z,12.69
2024-05-09T21:05:34.394Z,12.59
2024-05-09T21:08:01.607Z,12.53
2024-05-09T21:10:32.686Z,12.49
2024-05-09T21:13:00.968Z,12.47
2024-05-09T21:15:27.884Z,12.44
2024-05-09T21:17:54.610Z,12.42
2024-05-09T21:20:28.267Z,12.35
2024-05-09T21:22:58.398Z,12.30
2024-05-09T21:25:25.370Z,12.27
2024-05-09T21:27:52.334Z,12.21
2024-05-09T21:30:28.438Z,12.16
2024-05-09T21:33:05.263Z,12.09
2024-05-09T21:35:32.108Z,12.05
2024-05-09T21:37:58.778Z,12.00
2024-05-09T21:40:31.668Z,11.96
2024-05-09T21:43:01.768Z,11.90
2024-05-09T21:45:28.521Z,11.91
2024-05-09T21:47:55.395Z,11.87
2024-05-09T21:50:28.756Z,11.82
2024-05-09T21:53:03.378Z,11.81
2024-05-09T21:55:30.223Z,11.85
2024-05-09T21:57:57.229Z,11.80
2024-05-09T22:00:32.094Z,11.75
2024-05-09T22:03:03.483Z,11.81
2024-05-09T22:05:30.859Z,11.78
2024-05-09T22:07:57.687Z,11.79
2024-05-09T22:10:30.983Z,11.81
2024-05-09T22:13:01.267Z,11.75
2024-05-09T22:15:28.146Z,11.77
2024-05-09T22:17:56.332Z,11.81
2024-05-09T22:20:32.843Z,11.82
2024-05-09T22:23:04.231Z,11.73
2024-05-09T22:25:32.124Z,11.69
2024-05-09T22:27:59.511Z,11.70
2024-05-09T22:30:33.748Z,11.72
2024-05-09T22:33:05.210Z,11.73
2024-05-09T22:35:32.132Z,11.68
2024-05-09T22:37:59.012Z,11.62
2024-05-09T22:40:37.900Z,11.58
2024-05-09T22:43:12.581Z,11.56
2024-05-09T22:45:39.529Z,11.48
2024-05-09T22:48:07.540Z,11.46
2024-05-09T22:50:34.388Z,11.41
2024-05-09T22:53:01.347Z,11.38
2024-05-09T22:55:28.206Z,11.36
2024-05-09T22:57:55.078Z,11.34
2024-05-09T23:00:29.462Z,11.30
2024-05-09T23:03:02.469Z,11.24
2024-05-09T23:05:29.793Z,11.29
2024-05-09T23:07:56.825Z,11.28
2024-05-09T23:10:31.462Z,11.26
2024-05-09T23:13:02.684Z,11.17
2024-05-09T23:15:29.728Z,11.17
2024-05-09T23:17:57.431Z,11.13
2024-05-09T23:22:54.147Z,11.04
2024-05-09T23:25:20.813Z,11.01
2024-05-09T23:27:47.631Z,10.97
2024-05-09T23:30:25.832Z,10.90
2024-05-09T23:33:00.443Z,10.88
2024-05-09T23:35:27.193Z,10.86
2024-05-09T23:37:53.862Z,10.86
2024-05-09T23:40:23.299Z,10.79
2024-05-09T23:42:50.726Z,10.77
2024-05-09T23:45:17.395Z,10.75
2024-05-09T23:47:44.271Z,10.68
2024-05-09T23:50:16.859Z,10.59
2024-05-09T23:52:50.313Z,10.56
2024-05-09T23:55:17.112Z,10.49
2024-05-09T23:57:43.896Z,10.44
